Time;durP1;ratioP1;P1;durP2;ratioP2;P2;SDS_P1;SDS_P2;PMS_P1;PMS_P2;Temp;Humidity;BMP_temperature;BMP_pressure;BME280_temperature;BME280_humidity;BME280_pressure;Samples;Min_cycle;Max_cycle;Signal;HPM_P1;HPM_P2
2022/03/02 00:01:22;;;;;;;1.07;1.07;;;;;;;-0.39;93.36;92586.66;4958789;28;20518;-79
2022/03/02 00:03:51;;;;;;;2.23;2.03;;;;;;;-0.42;94.12;92580.84;4958764;28;20208;-79
2022/03/02 00:06:19;;;;;;;2.97;1.43;;;;;;;-0.48;94.60;92585.84;4958045;28;20591;-78
2022/03/02 00:08:46;;;;;;;1.77;1.77;;;;;;;-0.57;94.81;92557.75;4957905;28;20307;-79
2022/03/02 00:11:13;;;;;;;1.47;1.47;;;;;;;-0.23;93.75;92586.59;4957877;28;20235;-79
2022/03/02 00:13:41;;;;;;;1.43;1.43;;;;;;;-0.28;93.51;92575.84;4958020;28;20612;-79
2022/03/02 00:16:08;;;;;;;5.33;2.03;;;;;;;-0.13;91.68;92575.81;4957993;28;20594;-78
2022/03/02 00:18:36;;;;;;;1.30;1.30;;;;;;;0.05;90.92;92588.97;4957639;28;20467;-78
2022/03/02 00:21:05;;;;;;;2.90;1.37;;;;;;;0.00;90.95;92567.47;4958455;28;20587;-78
2022/03/02 00:23:32;;;;;;;1.70;1.70;;;;;;;0.11;90.04;92587.31;4957791;28;20210;-78
2022/03/02 00:25:59;;;;;;;2.83;2.73;;;;;;;0.09;90.10;92580.69;4958384;28;20548;-78
2022/03/02 00:28:27;;;;;;;2.63;2.53;;;;;;;0.09;90.53;92581.50;4957281;28;20206;-78
2022/03/02 00:30:54;;;;;;;3.23;3.03;;;;;;;0.05;90.11;92579.06;4957337;28;20197;-78
2022/03/02 00:33:21;;;;;;;2.00;1.90;;;;;;;-0.16;91.50;92572.50;4957816;28;20228;-78
2022/03/02 00:35:48;;;;;;;2.07;2.07;;;;;;;-0.61;92.22;92534.59;4957953;28;20188;-78
2022/03/02 00:38:17;;;;;;;2.00;2.00;;;;;;;-0.39;92.80;92555.19;4957428;28;20986;-78
2022/03/02 00:40:45;;;;;;;2.63;2.53;;;;;;;-0.32;92.32;92559.31;4957243;28;20605;-78
2022/03/02 00:43:12;;;;;;;3.90;2.20;;;;;;;-0.28;91.89;92560.16;4957822;28;20581;-78
2022/03/02 00:45:40;;;;;;;2.23;2.23;;;;;;;-0.24;91.70;92552.69;4957589;28;20357;-78
2022/03/02 00:48:08;;;;;;;1.87;1.87;;;;;;;-0.42;92.88;92528.75;4957317;28;20566;-78
2022/03/02 00:50:36;;;;;;;1.67;1.67;;;;;;;-0.37;92.90;92538.66;4957133;28;20208;-79
2022/03/02 00:53:05;;;;;;;1.73;1.73;;;;;;;-0.25;91.51;92548.53;4957283;28;20488;-78
2022/03/02 00:55:35;;;;;;;2.20;2.07;;;;;;;-0.29;90.80;92538.63;4957344;28;20595;-78
2022/03/02 00:58:03;;;;;;;2.63;2.53;;;;;;;-0.17;91.31;92546.03;4957564;28;20434;-78
2022/03/02 01:00:31;;;;;;;4.20;4.00;;;;;;;-0.35;91.31;92517.16;4957370;28;20523;-78
2022/03/02 01:02:58;;;;;;;2.97;2.87;;;;;;;-0.44;93.05;92522.13;4957090;28;20498;-79
2022/03/02 01:05:25;;;;;;;6.57;3.03;;;;;;;-0.38;93.90;92532.03;4956452;28;20197;-79
2022/03/02 01:07:53;;;;;;;4.67;2.27;;;;;;;-0.26;92.57;92534.47;4957050;28;20573;-78
2022/03/02 01:10:21;;;;;;;3.60;3.30;;;;;;;-0.16;91.84;92535.25;4957254;28;20204;-78
2022/03/02 01:12:49;;;;;;;3.40;3.10;;;;;;;-0.12;91.15;92536.91;4956456;28;20233;-78
2022/03/02 01:15:17;;;;;;;2.90;2.90;;;;;;;-0.16;90.82;92533.59;4957153;28;20519;-78
2022/03/02 01:17:45;;;;;;;2.37;2.30;;;;;;;-0.19;91.00;92533.63;4956786;28;20497;-78
2022/03/02 01:20:13;;;;;;;2.60;2.50;;;;;;;-0.15;91.05;92530.28;4956415;28;20470;-78
2022/03/02 01:22:40;;;;;;;3.10;3.00;;;;;;;-0.12;91.10;92531.94;4956953;28;20485;-78
2022/03/02 01:25:09;;;;;;;2.87;2.77;;;;;;;-0.10;90.51;92528.63;4957150;28;20447;-78
2022/03/02 01:27:37;;;;;;;2.00;1.90;;;;;;;-0.19;90.13;92513.78;4957077;28;20697;-78
2022/03/02 01:30:08;;;;;;;2.73;2.63;;;;;;;-0.10;90.30;92521.16;4956917;28;20215;-78
2022/03/02 01:32:35;;;;;;;3.83;3.63;;;;;;;-0.13;90.66;92518.72;4956019;28;20580;-79
2022/03/02 01:35:02;;;;;;;1.63;1.63;;;;;;;-0.37;90.38;92475.78;4957038;28;20592;-79
2022/03/02 01:37:30;;;;;;;4.10;3.80;;;;;;;-0.20;90.38;92496.41;4956882;28;20188;-79
2022/03/02 01:39:57;;;;;;;1.33;1.33;;;;;;;-0.14;90.45;92507.13;4957391;28;20302;-78
2022/03/02 01:42:24;;;;;;;2.53;2.33;;;;;;;-0.11;90.73;92509.56;4956576;28;20490;-78
2022/03/02 01:44:52;;;;;;;2.07;2.07;;;;;;;-0.10;90.26;92501.31;4956453;28;20513;-79
2022/03/02 01:47:20;;;;;;;2.47;2.43;;;;;;;-0.15;90.76;92479.81;4956775;28;20647;-78
2022/03/02 01:49:48;;;;;;;2.17;1.97;;;;;;;-0.12;90.70;92485.63;4956127;28;20656;-78
2022/03/02 01:52:15;;;;;;;1.87;1.87;;;;;;;-0.10;90.63;92478.97;4957120;28;20494;-79
2022/03/02 01:54:42;;;;;;;1.37;1.37;;;;;;;-0.15;91.33;92478.16;4956191;28;20489;-79
2022/03/02 01:57:11;;;;;;;1.87;1.87;;;;;;;-0.14;92.59;92481.47;4955661;28;20690;-79
2022/03/02 01:59:39;;;;;;;1.90;1.90;;;;;;;-0.04;90.94;92483.91;4955741;28;20196;-79
2022/03/02 02:02:06;;;;;;;1.63;1.53;;;;;;;-0.01;90.58;92481.41;4956215;28;20480;-79
2022/03/02 02:04:35;;;;;;;1.27;1.27;;;;;;;-0.14;91.99;92474.84;4956108;28;20498;-79
2022/03/02 02:07:03;;;;;;;1.23;1.23;;;;;;;-0.43;92.93;92452.66;4956093;28;20538;-79
2022/03/02 02:09:30;;;;;;;1.50;1.50;;;;;;;-0.41;93.36;92467.56;4956147;28;20494;-79
2022/03/02 02:11:57;;;;;;;1.53;1.53;;;;;;;-0.38;93.74;92467.53;4955403;28;20333;-79
2022/03/02 02:14:25;;;;;;;1.00;1.00;;;;;;;-0.16;92.51;92475.69;4956792;28;20566;-79
2022/03/02 02:16:53;;;;;;;0.90;0.90;;;;;;;-0.12;92.03;92469.91;4956232;28;20584;-80
2022/03/02 02:19:20;;;;;;;1.63;1.53;;;;;;;-0.07;92.88;92470.69;4957059;28;20521;-80
2022/03/02 02:21:49;;;;;;;1.83;1.73;;;;;;;-0.20;92.88;92464.97;4955852;28;20195;-80
2022/03/02 02:24:17;;;;;;;0.83;0.83;;;;;;;-0.23;93.11;92457.53;4956065;28;20204;-80
2022/03/02 02:26:45;;;;;;;1.83;1.70;;;;;;;-0.12;92.30;92458.31;4956123;28;20631;-79
2022/03/02 02:29:13;;;;;;;1.17;1.17;;;;;;;-0.22;92.63;92466.63;4956814;28;20210;-80
2022/03/02 02:31:41;;;;;;;1.17;1.17;;;;;;;-0.31;93.34;92469.16;4956280;28;20644;-79
2022/03/02 02:34:08;;;;;;;0.80;0.80;;;;;;;-0.35;93.46;92466.69;4955296;28;20470;-79
2022/03/02 02:36:39;;;;;;;0.90;0.90;;;;;;;-0.45;94.47;92463.41;4956030;28;20612;-80
2022/03/02 02:39:08;;;;;;;1.10;1.10;;;;;;;-0.54;95.07;92465.94;4955957;28;20480;-79
2022/03/02 02:41:35;;;;;;;0.97;0.97;;;;;;;-0.62;95.62;92455.25;4956474;28;20541;-79
2022/03/02 02:44:03;;;;;;;1.00;1.00;;;;;;;-0.63;95.40;92442.00;4956992;28;20645;-79
2022/03/02 02:46:30;;;;;;;0.70;0.70;;;;;;;-0.62;96.19;92455.25;4959093;28;20616;-80
2022/03/02 02:48:57;;;;;;;3.50;1.00;;;;;;;-0.71;96.56;92446.16;4959637;28;20471;-79
2022/03/02 02:51:25;;;;;;;1.10;1.10;;;;;;;-0.81;96.39;92436.28;4959454;28;20505;-79
2022/03/02 02:53:52;;;;;;;1.43;1.43;;;;;;;-0.81;96.42;92431.34;4959881;28;20211;-80
2022/03/02 02:56:21;;;;;;;1.93;1.83;;;;;;;-0.56;96.12;92448.56;4960136;28;20541;-80
2022/03/02 02:58:48;;;;;;;1.43;1.43;;;;;;;-0.50;96.24;92452.69;4959455;28;20664;-79
2022/03/02 03:01:17;;;;;;;2.23;1.83;;;;;;;-0.29;94.80;92457.56;4959278;28;20484;-79
2022/03/02 03:03:44;;;;;;;0.73;0.73;;;;;;;-0.39;95.06;92455.16;4959546;28;20554;-79
2022/03/02 03:06:11;;;;;;;1.30;1.30;;;;;;;-0.41;94.77;92452.66;4960650;28;20608;-80
2022/03/02 03:08:39;;;;;;;0.90;0.90;;;;;;;-0.44;95.00;92445.22;4959280;28;20488;-80
2022/03/02 03:11:06;;;;;;;0.63;0.63;;;;;;;-0.38;94.16;92442.72;4959034;28;20636;-80
2022/03/02 03:13:35;;;;;;;1.27;1.27;;;;;;;-0.25;92.92;92450.94;4959936;28;20516;-77
2022/03/02 03:16:02;;;;;;;0.90;0.90;;;;;;;-0.33;93.88;92450.13;4959089;28;20200;-80
2022/03/02 03:18:29;;;;;;;0.80;0.80;;;;;;;-0.55;94.75;92441.97;4959684;28;20598;-80
2022/03/02 03:20:56;;;;;;;1.40;1.30;;;;;;;-0.64;95.20;92440.34;4958895;28;20485;-81
2022/03/02 03:23:24;;;;;;;1.30;1.20;;;;;;;-0.75;95.95;92451.97;4959229;28;20586;-80
2022/03/02 03:25:51;;;;;;;1.13;1.13;;;;;;;-0.81;96.18;92454.47;4958874;28;20200;-80
2022/03/02 03:28:18;;;;;;;0.97;0.97;;;;;;;-1.22;93.80;92419.88;4958935;28;20605;-80
2022/03/02 03:30:47;;;;;;;1.70;1.70;;;;;;;-1.02;94.02;92455.38;4959398;28;20557;-80
2022/03/02 03:33:14;;;;;;;1.37;1.33;;;;;;;-1.02;94.47;92455.38;4958486;28;20607;-80
2022/03/02 03:35:42;;;;;;;1.93;1.83;;;;;;;-1.01;94.28;92456.16;4958929;28;20567;-80
2022/03/02 03:38:09;;;;;;;4.40;3.03;;;;;;;-0.94;94.13;92448.72;4958478;28;20573;-80
2022/03/02 03:40:36;;;;;;;3.83;3.53;;;;;;;-0.96;93.52;92430.53;4958412;28;20561;-80
2022/03/02 03:43:04;;;;;;;2.77;2.63;;;;;;;-0.65;92.70;92453.59;4959568;28;20192;-80
2022/03/02 03:45:31;;;;;;;2.20;1.37;;;;;;;-0.61;92.10;92455.22;4958347;28;20223;-79
2022/03/02 03:48:00;;;;;;;1.70;1.70;;;;;;;-0.50;91.92;92455.16;4958681;28;20223;-79
2022/03/02 03:50:27;;;;;;;1.47;1.47;;;;;;;-0.61;91.83;92445.28;4958255;28;20204;-80
2022/03/02 03:52:54;;;;;;;0.93;0.93;;;;;;;-0.38;90.39;92465.03;4958474;28;20188;-80
2022/03/02 03:55:22;;;;;;;1.43;1.43;;;;;;;-0.30;90.72;92463.38;4958142;28;20573;-79
2022/03/02 03:57:49;;;;;;;1.13;1.03;;;;;;;-0.43;90.74;92452.66;4957955;28;20529;-80
2022/03/02 04:00:18;;;;;;;1.50;1.50;;;;;;;-0.34;90.98;92453.47;4958335;28;20508;-80
2022/03/02 04:02:46;;;;;;;1.50;1.50;;;;;;;-0.24;88.82;92455.88;4959793;28;20547;-80
2022/03/02 04:05:15;;;;;;;1.53;1.53;;;;;;;-0.44;89.22;92458.44;4958638;28;20574;-80
2022/03/02 04:07:42;;;;;;;5.27;2.00;;;;;;;-0.62;89.88;92448.59;4957897;28;20232;-79
2022/03/02 04:10:11;;;;;;;2.53;2.43;;;;;;;-0.70;89.62;92462.69;4958756;28;20586;-79
2022/03/02 04:12:38;;;;;;;2.70;2.13;;;;;;;-0.80;89.66;92465.22;4958714;28;20605;-80
2022/03/02 04:15:06;;;;;;;3.27;3.17;;;;;;;-0.86;90.40;92454.50;4958552;28;20557;-80
2022/03/02 04:17:34;;;;;;;4.30;4.00;;;;;;;-0.99;90.23;92447.09;4958018;28;20489;-81
2022/03/02 04:20:01;;;;;;;3.47;3.17;;;;;;;-0.95;91.35;92459.47;4958363;28;20274;-80
2022/03/02 04:22:30;;;;;;;2.53;2.43;;;;;;;-0.93;91.44;92455.34;4958021;28;20553;-80
2022/03/02 04:24:57;;;;;;;1.77;1.77;;;;;;;-1.18;91.59;92413.28;4957557;28;20589;-80
2022/03/02 04:27:25;;;;;;;1.17;1.17;;;;;;;-0.98;91.13;92433.88;4958081;28;20243;-80
2022/03/02 04:29:52;;;;;;;4.63;3.57;;;;;;;-0.70;90.25;92459.38;4957329;28;20204;-80
2022/03/02 04:32:19;;;;;;;3.47;3.37;;;;;;;-0.87;89.38;92450.34;4957802;28;20561;-80
2022/03/02 04:34:46;;;;;;;4.50;4.17;;;;;;;-0.84;90.31;92457.78;4957444;28;20471;-80
2022/03/02 04:37:14;;;;;;;2.00;2.00;;;;;;;-1.12;89.00;92436.38;4957116;28;20582;-80
2022/03/02 04:39:42;;;;;;;1.60;1.60;;;;;;;-0.94;89.65;92456.16;4958163;28;20553;-80
2022/03/02 04:42:10;;;;;;;3.07;2.90;;;;;;;-0.98;90.57;92452.03;4956832;28;20484;-80
2022/03/02 04:44:37;;;;;;;2.93;2.83;;;;;;;-0.93;89.57;92428.06;4958016;28;20552;-80
2022/03/02 04:47:04;;;;;;;3.03;2.80;;;;;;;-0.76;89.64;92449.50;4957475;28;20228;-80
2022/03/02 04:49:32;;;;;;;2.27;2.27;;;;;;;-0.61;88.93;92464.31;4956818;28;20502;-80
2022/03/02 04:51:59;;;;;;;2.37;2.27;;;;;;;-0.46;87.19;92466.75;4956884;28;20592;-80
2022/03/02 04:57:13;;;;;;;1.70;1.70;;;;;;;-0.33;86.81;92457.56;4957882;28;20468;-80
2022/03/02 04:59:40;;;;;;;3.13;2.13;;;;;;;-0.38;87.43;92454.28;4957062;28;20471;-81
2022/03/02 05:02:07;;;;;;;1.53;1.53;;;;;;;-0.43;87.71;92455.13;4957156;28;20208;-80
2022/03/02 05:04:34;;;;;;;1.57;1.57;;;;;;;-0.57;88.26;92442.00;4957034;28;20262;-80
2022/03/02 05:07:02;;;;;;;1.83;1.83;;;;;;;-0.72;89.03;92441.19;4956296;28;20589;-80
2022/03/02 05:09:29;;;;;;;1.67;1.67;;;;;;;-1.01;89.51;92414.03;4957081;28;20510;-81
2022/03/02 05:11:56;;;;;;;2.10;1.73;;;;;;;-0.79;89.38;92432.16;4956865;28;20604;-81
2022/03/02 05:14:25;;;;;;;1.83;1.77;;;;;;;-0.87;89.53;92419.78;4956960;28;20532;-80
2022/03/02 05:16:52;;;;;;;9.43;2.63;;;;;;;-0.67;89.29;92439.53;4957250;28;20212;-81
2022/03/02 05:19:19;;;;;;;4.60;2.37;;;;;;;-0.52;88.05;92449.41;4957532;28;20567;-81
2022/03/02 05:21:47;;;;;;;3.43;2.93;;;;;;;-0.71;87.14;92456.09;4954998;28;20219;-77
2022/03/02 05:24:15;;;;;;;2.73;2.63;;;;;;;-0.59;86.87;92458.53;4955968;28;20291;-77
2022/03/02 05:26:42;;;;;;;1.70;1.70;;;;;;;-0.56;86.67;92451.06;4956043;28;20525;-76
2022/03/02 05:29:09;;;;;;;2.20;2.20;;;;;;;-0.47;85.98;92462.63;4954912;28;20569;-77
2022/03/02 05:31:38;;;;;;;2.07;1.97;;;;;;;-0.50;85.35;92445.25;4955764;28;20527;-76
2022/03/02 05:34:06;;;;;;;2.60;2.47;;;;;;;-0.28;84.98;92473.28;4955381;28;20586;-77
2022/03/02 05:36:33;;;;;;;2.20;2.17;;;;;;;-0.23;85.65;92462.50;4955618;28;20583;-75
2022/03/02 05:39:00;;;;;;;6.43;3.67;;;;;;;-0.35;85.15;92479.09;4955740;28;20222;-76
2022/03/02 05:41:28;;;;;;;6.87;6.67;;;;;;;-0.47;85.16;92475.03;4955738;28;20564;-77
2022/03/02 05:43:55;;;;;;;4.40;4.23;;;;;;;-0.50;84.13;92477.50;4955810;28;20591;-77
2022/03/02 05:46:23;;;;;;;2.87;2.77;;;;;;;-0.38;82.41;92497.28;4955473;28;20598;-78
2022/03/02 05:48:52;;;;;;;4.90;4.40;;;;;;;-0.31;82.55;92484.03;4955930;28;20219;-75
2022/03/02 05:51:20;;;;;;;4.70;4.47;;;;;;;-0.35;83.63;92456.78;4955504;28;20591;-74
2022/03/02 05:53:47;;;;;;;4.23;4.13;;;;;;;-0.11;83.52;92476.47;4955149;28;20604;-75
2022/03/02 05:56:14;;;;;;;4.13;3.93;;;;;;;0.09;81.91;92488.81;4954912;28;20476;-75
2022/03/02 05:58:42;;;;;;;11.10;10.30;;;;;;;0.14;81.44;92477.19;4955402;28;20570;-74
2022/03/02 06:01:09;;;;;;;7.83;7.37;;;;;;;0.16;82.00;92478.00;4955480;28;20209;-75
2022/03/02 06:03:36;;;;;;;9.30;8.40;;;;;;;0.33;81.43;92496.09;4955012;28;20606;-74
2022/03/02 06:06:05;;;;;;;12.40;9.43;;;;;;;0.33;82.37;92482.03;4954974;28;20495;-74
2022/03/02 06:08:32;;;;;;;13.43;9.57;;;;;;;0.15;83.10;92472.22;4954685;28;20654;-75
2022/03/02 06:11:00;;;;;;;7.23;6.90;;;;;;;0.14;81.84;92490.41;4955377;28;20634;-74
2022/03/02 06:13:28;;;;;;;10.10;9.27;;;;;;;-0.03;81.15;92489.69;4955782;28;20563;-73
2022/03/02 06:15:55;;;;;;;11.03;9.93;;;;;;;0.12;81.20;92494.56;4955657;28;20484;-73
2022/03/02 06:18:23;;;;;;;12.63;8.43;;;;;;;0.20;80.73;92482.09;4956923;28;20524;-73
2022/03/02 06:20:52;;;;;;;5.20;4.83;;;;;;;0.18;80.31;92492.03;4959258;28;20587;-73
2022/03/02 06:23:22;;;;;;;6.67;6.23;;;;;;;0.21;80.51;92483.75;4959455;28;20500;-73
2022/03/02 06:25:50;;;;;;;3.43;3.33;;;;;;;0.30;79.53;92489.47;4959026;28;20213;-75
2022/03/02 06:28:17;;;;;;;2.83;2.70;;;;;;;0.38;79.05;92497.72;4959213;28;20585;-76
2022/03/02 06:30:45;;;;;;;7.30;6.80;;;;;;;0.40;78.60;92488.59;4959258;28;20214;-76
2022/03/02 06:33:15;;;;;;;14.83;10.23;;;;;;;0.24;79.89;92486.22;4958894;28;20712;-75
2022/03/02 06:35:42;;;;;;;11.30;10.60;;;;;;;0.10;80.34;92473.91;4959219;28;20564;-75
2022/03/02 06:38:10;;;;;;;17.03;10.03;;;;;;;0.00;80.57;92490.50;4958490;28;20651;-74
2022/03/02 06:40:38;;;;;;;14.53;11.57;;;;;;;-0.07;81.28;92473.16;4958410;28;20483;-75
2022/03/02 06:43:08;;;;;;;11.87;11.03;;;;;;;-0.09;81.70;92469.88;4958797;28;20597;-76
2022/03/02 06:45:48;;;;;;;11.13;10.27;;;;;;;-0.08;81.71;92467.38;4958602;28;20562;-75
2022/03/02 06:48:21;;;;;;;9.43;8.93;;;;;;;-0.11;82.32;92459.94;4958735;28;20663;-75
2022/03/02 06:50:53;;;;;;;6.67;5.90;;;;;;;-0.14;82.54;92472.38;4958755;28;20589;-76
2022/03/02 06:53:32;;;;;;;5.63;5.43;;;;;;;-0.23;81.65;92469.13;4958852;28;20664;-75
2022/03/02 06:56:01;;;;;;;3.33;3.17;;;;;;;-0.27;81.43;92455.06;4958365;28;20660;-76
2022/03/02 06:58:35;;;;;;;3.37;3.27;;;;;;;-0.21;80.21;92487.28;4957736;28;20493;-75
2022/03/02 07:01:04;;;;;;;4.67;4.37;;;;;;;-0.17;80.39;92477.34;4956014;28;20648;-75
2022/03/02 07:03:41;;;;;;;4.33;4.13;;;;;;;-0.22;80.40;92474.06;4958094;28;20488;-75
2022/03/02 07:06:08;;;;;;;5.73;5.43;;;;;;;-0.15;80.18;92474.84;4958651;28;20549;-75
2022/03/02 07:08:37;;;;;;;6.83;6.43;;;;;;;-0.11;80.21;92477.31;4958637;28;20251;-75
2022/03/02 07:11:06;;;;;;;5.57;5.23;;;;;;;-0.09;80.43;92473.16;4957620;28;20242;-75
2022/03/02 07:13:35;;;;;;;3.83;3.73;;;;;;;0.02;80.36;92470.63;4958314;28;20554;-74
2022/03/02 07:16:03;;;;;;;8.47;6.10;;;;;;;-0.01;80.90;92469.00;4959007;28;20590;-74
2022/03/02 07:18:31;;;;;;;8.83;7.93;;;;;;;0.13;79.38;92482.97;4959639;28;20682;-75
2022/03/02 07:20:59;;;;;;;7.43;6.93;;;;;;;-0.40;78.38;92413.78;4959799;28;20270;-75
2022/03/02 07:23:35;;;;;;;7.63;7.03;;;;;;;-0.34;77.74;92460.91;4958007;28;20577;-75
2022/03/02 07:26:07;;;;;;;8.67;7.83;;;;;;;-0.35;78.92;92472.50;4958162;28;20580;-74
2022/03/02 07:28:39;;;;;;;8.80;7.93;;;;;;;-0.38;79.57;92466.69;4958119;28;20220;-74
2022/03/02 07:31:09;;;;;;;7.30;6.80;;;;;;;-0.51;79.64;92471.69;4953995;28;20573;-73
2022/03/02 07:33:41;;;;;;;12.37;11.30;;;;;;;-0.52;79.72;92455.19;4957651;28;20569;-73
2022/03/02 07:36:10;;;;;;;7.13;6.63;;;;;;;-0.48;79.37;92454.34;4955469;28;20585;-72
2022/03/02 07:38:39;;;;;;;7.23;6.73;;;;;;;-0.42;79.01;92448.53;4952836;28;20674;-72
2022/03/02 07:41:07;;;;;;;11.27;10.00;;;;;;;-0.36;77.98;92440.22;4956659;28;20521;-73
2022/03/02 07:43:38;;;;;;;4.77;4.57;;;;;;;-0.18;78.01;92445.09;4956099;28;20596;-72
2022/03/02 07:46:06;;;;;;;4.97;4.73;;;;;;;-0.05;77.59;92452.44;4956334;28;20196;-72
2022/03/02 07:48:34;;;;;;;7.60;7.03;;;;;;;0.03;77.06;92440.00;4957167;28;20639;-73
2022/03/02 07:51:02;;;;;;;5.70;5.27;;;;;;;0.23;74.27;92467.16;4957146;28;20615;-73
2022/03/02 07:53:34;;;;;;;6.80;6.43;;;;;;;0.36;74.43;92453.84;4954033;28;20553;-73
2022/03/02 07:56:04;;;;;;;9.30;6.73;;;;;;;0.30;73.51;92439.81;4957010;28;20621;-74
2022/03/02 07:58:31;;;;;;;3.77;3.67;;;;;;;0.32;73.34;92434.84;4957091;28;20320;-74
2022/03/02 08:01:03;;;;;;;4.37;4.03;;;;;;;0.48;72.20;92458.72;4954408;28;20527;-73
2022/03/02 08:03:35;;;;;;;3.70;3.30;;;;;;;0.52;70.95;92460.34;4956441;28;20620;-74
2022/03/02 08:06:02;;;;;;;2.00;1.90;;;;;;;0.61;69.53;92465.25;4955582;28;20557;-73
2022/03/02 08:08:30;;;;;;;4.70;4.20;;;;;;;0.66;70.26;92450.28;4956785;28;20520;-74
2022/03/02 08:10:57;;;;;;;5.63;3.27;;;;;;;0.72;69.14;92442.78;4955396;28;20566;-73
2022/03/02 08:13:25;;;;;;;5.50;5.30;;;;;;;0.70;68.12;92446.94;4956957;28;20268;-73
2022/03/02 08:15:53;;;;;;;2.13;2.13;;;;;;;0.83;67.04;92450.97;4956957;28;20538;-74
2022/03/02 08:18:21;;;;;;;2.73;2.07;;;;;;;1.06;67.45;92455.72;4956594;28;20196;-73
2022/03/02 08:20:51;;;;;;;1.20;1.20;;;;;;;1.04;63.92;92472.31;4957365;28;20601;-73
2022/03/02 08:23:20;;;;;;;1.60;1.40;;;;;;;1.14;64.04;92474.69;4956760;28;20640;-72
2022/03/02 08:25:52;;;;;;;1.83;1.83;;;;;;;1.12;65.40;92419.19;4956590;28;20606;-73
2022/03/02 08:28:20;;;;;;;1.63;1.63;;;;;;;1.39;63.84;92462.00;4956452;28;20485;-73
2022/03/02 08:30:50;;;;;;;1.30;1.30;;;;;;;1.46;64.45;92443.69;4956523;28;20564;-73
2022/03/02 08:33:25;;;;;;;5.50;5.00;;;;;;;1.57;63.66;92460.13;4957008;28;20492;-72
2022/03/02 08:35:53;;;;;;;2.43;2.33;;;;;;;1.64;63.01;92464.19;4956593;28;20613;-73
2022/03/02 08:38:20;;;;;;;3.20;3.10;;;;;;;1.80;63.48;92449.91;4956870;28;20475;-73
2022/03/02 08:40:47;;;;;;;2.57;2.47;;;;;;;1.97;61.80;92467.13;4955819;28;20470;-73
2022/03/02 08:43:16;;;;;;;1.77;1.77;;;;;;;2.14;61.49;92465.19;4956401;28;20469;-73
2022/03/02 08:45:46;;;;;;;1.70;1.70;;;;;;;2.30;60.84;92460.84;4955457;28;20294;-72
2022/03/02 08:48:33;;;;;;;2.83;2.67;;;;;;;2.15;62.05;92421.16;4954563;28;20251;-73
2022/03/02 08:51:02;;;;;;;2.17;2.07;;;;;;;2.22;61.34;92437.69;4954384;28;20257;-75
2022/03/02 08:53:32;;;;;;;4.50;4.20;;;;;;;2.47;61.15;92449.78;4954157;28;20503;-74
2022/03/02 08:56:01;;;;;;;2.67;2.57;;;;;;;2.39;61.30;92416.66;4956793;28;20239;-74
2022/03/02 08:58:29;;;;;;;2.17;2.17;;;;;;;2.34;60.94;92450.78;4956314;28;20476;-74
2022/03/02 09:01:00;;;;;;;1.60;1.60;;;;;;;2.47;61.18;92442.28;4956221;28;20290;-74
2022/03/02 09:03:28;;;;;;;3.17;2.97;;;;;;;2.66;62.74;92422.84;4956415;28;20623;-74
2022/03/02 09:05:56;;;;;;;2.67;2.57;;;;;;;2.83;62.64;92420.09;4956844;28;20200;-74
2022/03/02 09:08:24;;;;;;;3.17;2.97;;;;;;;2.97;61.67;92430.66;4955747;28;20227;-74
2022/03/02 09:10:52;;;;;;;4.30;1.87;;;;;;;3.19;62.32;92421.94;4956213;28;20588;-74
2022/03/02 09:13:19;;;;;;;3.97;3.70;;;;;;;3.24;60.83;92410.19;4956494;28;20529;-73
2022/03/02 09:15:46;;;;;;;2.57;2.47;;;;;;;3.37;60.66;92424.94;4956118;28;20527;-75
2022/03/02 09:18:14;;;;;;;3.30;1.57;;;;;;;3.50;60.18;92434.66;4956039;28;20470;-73
2022/03/02 09:20:43;;;;;;;2.27;2.17;;;;;;;3.52;58.50;92442.94;4956135;28;20552;-72
2022/03/02 09:23:10;;;;;;;1.60;1.50;;;;;;;3.44;58.88;92427.28;4955677;28;20662;-72
2022/03/02 09:25:40;;;;;;;1.70;1.60;;;;;;;3.50;58.59;92432.16;4955728;28;20576;-73
2022/03/02 09:28:11;;;;;;;2.33;2.13;;;;;;;3.60;60.15;92417.84;4953490;28;20489;-73
2022/03/02 09:30:39;;;;;;;2.20;2.10;;;;;;;3.64;59.76;92420.22;4953115;28;20616;-73
2022/03/02 09:33:14;;;;;;;1.83;1.77;;;;;;;3.52;59.40;92417.16;4954957;28;20479;-73
2022/03/02 09:35:41;;;;;;;2.43;1.73;;;;;;;3.31;58.11;92408.41;4955209;28;20482;-73
2022/03/02 09:38:08;;;;;;;1.80;1.80;;;;;;;3.40;58.61;92407.41;4955876;28;20592;-73
2022/03/02 09:40:36;;;;;;;3.57;3.37;;;;;;;3.50;57.84;92406.34;4954629;28;20216;-73
2022/03/02 09:43:06;;;;;;;4.93;4.13;;;;;;;3.80;59.19;92394.94;4954393;28;20480;-74
2022/03/02 09:45:35;;;;;;;6.17;2.90;;;;;;;4.10;58.92;92392.59;4955255;28;20565;-72
2022/03/02 09:48:04;;;;;;;1.50;1.50;;;;;;;4.35;57.99;92394.53;4955127;28;20588;-73
2022/03/02 09:50:34;;;;;;;1.17;1.17;;;;;;;4.49;55.77;92408.38;4955460;28;20479;-73
2022/03/02 09:53:04;;;;;;;8.20;4.57;;;;;;;4.56;56.05;92414.84;4955596;28;20592;-73
2022/03/02 09:55:31;;;;;;;4.23;4.03;;;;;;;4.53;55.73;92396.63;4955622;28;20601;-73
2022/03/02 09:58:00;;;;;;;3.93;2.50;;;;;;;4.52;54.24;92425.81;4955640;28;20596;-73
2022/03/02 10:00:31;;;;;;;5.00;3.60;;;;;;;4.50;55.39;92397.53;4954568;28;20232;-73
2022/03/02 10:03:00;;;;;;;9.53;6.93;;;;;;;4.54;56.40;92389.09;4954811;28;20612;-73
2022/03/02 10:05:29;;;;;;;6.50;2.30;;;;;;;4.68;55.83;92393.72;4954882;28;20600;-73
2022/03/02 10:08:00;;;;;;;7.40;3.60;;;;;;;4.65;55.54;92398.81;4954011;28;20476;-73
2022/03/02 10:10:31;;;;;;;2.80;1.93;;;;;;;4.69;53.98;92404.56;4953540;28;20658;-71
2022/03/02 10:13:00;;;;;;;6.50;6.00;;;;;;;4.62;55.32;92368.06;4953459;28;20311;-72
2022/03/02 10:15:33;;;;;;;2.77;2.67;;;;;;;4.60;56.55;92368.09;4950769;28;20592;-72
2022/03/02 10:18:03;;;;;;;3.50;3.23;;;;;;;4.70;56.62;92359.50;4953599;28;20587;-71
2022/03/02 10:20:32;;;;;;;2.43;2.30;;;;;;;4.68;56.51;92347.88;4954505;28;20503;-71
2022/03/02 10:23:37;;;;;;;3.87;3.67;;;;;;;4.72;56.23;92347.78;4955041;28;20587;-71
2022/03/02 10:26:10;;;;;;;3.07;2.87;;;;;;;4.66;55.40;92349.63;4953741;28;20959;-72
2022/03/02 10:28:47;;;;;;;4.00;2.60;;;;;;;4.42;56.61;92339.34;4955136;28;20227;-72
2022/03/02 10:31:41;;;;;;;3.50;1.87;;;;;;;5.41;54.41;92349.25;4948650;28;20605;-72
2022/03/02 10:34:29;;;;;;;1.53;1.43;;;;;;;6.68;50.90;92372.22;4953235;28;20219;-72
2022/03/02 10:37:09;;;;;;;4.03;2.67;;;;;;;7.24;50.22;92372.03;4953410;28;20604;-72
2022/03/02 10:39:54;;;;;;;4.47;4.07;;;;;;;7.76;50.75;92345.91;4952728;28;20545;-72
2022/03/02 10:42:26;;;;;;;5.90;4.60;;;;;;;7.38;48.50;92358.13;4954719;28;20525;-72
2022/03/02 10:45:16;;;;;;;4.53;4.23;;;;;;;7.25;50.94;92334.31;4951915;28;20601;-72
2022/03/02 10:48:00;;;;;;;5.67;4.67;;;;;;;7.17;50.81;92330.41;4953122;28;20516;-72
2022/03/02 10:50:29;;;;;;;25.37;14.00;;;;;;;7.33;49.56;92331.50;4953354;28;20530;-72
2022/03/02 10:52:58;;;;;;;67.10;22.47;;;;;;;7.54;50.39;92325.75;4954280;28;20208;-72
2022/03/02 10:55:26;;;;;;;3.37;3.23;;;;;;;7.22;50.20;92318.50;4954312;28;20441;-72
2022/03/02 10:57:55;;;;;;;22.90;11.27;;;;;;;7.08;50.38;92308.97;4954436;28;20335;-71
2022/03/02 11:00:24;;;;;;;4.90;3.90;;;;;;;6.78;48.30;92327.56;4953658;28;20628;-72
2022/03/02 11:02:57;;;;;;;3.27;3.17;;;;;;;6.84;50.77;92312.28;4953886;28;20601;-72
2022/03/02 11:05:25;;;;;;;3.13;2.50;;;;;;;6.54;50.60;92306.59;4953475;28;20679;-72
2022/03/02 11:07:53;;;;;;;2.30;2.20;;;;;;;6.68;52.13;92286.91;4956719;28;20587;-72
2022/03/02 11:10:23;;;;;;;7.23;5.40;;;;;;;6.84;52.42;92262.09;4956486;28;20499;-72
2022/03/02 11:12:51;;;;;;;8.47;5.73;;;;;;;7.07;50.59;92272.16;4955263;28;20617;-72
2022/03/02 11:15:19;;;;;;;32.47;13.13;;;;;;;7.13;49.21;92298.75;4957968;28;20576;-72
2022/03/02 11:18:01;;;;;;;19.03;10.23;;;;;;;7.01;50.30;92288.25;4957728;28;20484;-72
2022/03/02 11:20:31;;;;;;;3.57;3.37;;;;;;;6.70;51.11;92274.28;4956212;28;20677;-72
2022/03/02 11:23:00;;;;;;;2.63;2.43;;;;;;;6.51;51.09;92274.91;4955239;28;20470;-72
2022/03/02 11:25:46;;;;;;;25.80;12.40;;;;;;;6.35;51.42;92281.28;4957833;28;20487;-72
2022/03/02 11:28:16;;;;;;;7.20;3.20;;;;;;;6.20;51.52;92270.03;4956258;28;20576;-72
2022/03/02 11:30:49;;;;;;;2.27;2.17;;;;;;;5.86;49.89;92281.16;4955096;28;20286;-72
2022/03/02 11:33:23;;;;;;;3.30;3.10;;;;;;;5.87;50.24;92280.28;4956633;28;20522;-72
2022/03/02 11:35:51;;;;;;;2.17;2.00;;;;;;;5.64;52.25;92254.22;4955908;28;20496;-73
2022/03/02 11:38:22;;;;;;;2.20;2.10;;;;;;;5.49;53.26;92244.66;4950630;28;20495;-72
2022/03/02 11:40:51;;;;;;;3.53;3.43;;;;;;;5.47;54.16;92228.84;4951143;28;20609;-72
2022/03/02 11:43:21;;;;;;;2.20;2.10;;;;;;;5.62;53.93;92235.09;4957512;28;20573;-72
2022/03/02 11:45:51;;;;;;;6.40;5.43;;;;;;;5.87;54.53;92217.63;4953752;28;20533;-72
2022/03/02 11:48:22;;;;;;;14.17;9.23;;;;;;;6.10;52.83;92233.59;4956470;28;20608;-73